Airfield :
LOGIN :

Register | Disclaimer

   EN    FR    IT 

 










Legend :    VFR   Marginal VFR   IFR   Intensive IFR   Very Intensive IFR
Visi :
Ceiling :
>= 8 km
>= 3000ft
5 to 8 km
1000 to 3000 ft
1500m to 5 km
500 to 1000 ft
800 to 1500m
200 to 500 ft
< 800m
< 200 ft
Symbols :   Thunderstorms  Fog  Heavy snow  Heavy precipitations  Wind > 20 kt
SIGMETs :     Misc.  Thunderstorms  Icing  Turbulence  Mountain Waves  Volcanic Ashes







- Airport Elevation : 1046 ft
- IATA code : NUE


EDDN - Nuremberg

CURRENT METAR :
  • 181550Z 25017KT 9999 FEW023 07/04 Q0999 R28/29//95 TEMPO 27025G45KT

EXPIRED METARs :
  • 181520Z 26020G32KT 9999 FEW023 07/04 Q0998 R28/29//95 TEMPO 27025G45KT
  • 181450Z 26021G36KT 9999 FEW015 SCT090 07/04 Q0998 R28/29//95 TEMPO 27035G55KT
  • 181420Z 26031G45KT 230V290 9999 -SHRA FEW015 SCT025CB 07/04 Q0998 R28/29//95 TEMPO 27035G55KT
  • 181350Z 27032G46KT 9999 FEW025CB BKN036 09/03 Q0997 R28/29//95 TEMPO SHRA
  • 181320Z 25029G44KT 9999 FEW022 BKN027 09/03 Q0996 R28/29//95 NOSIG
  • 181250Z 24021KT 9999 FEW020 BKN027 08/04 Q0996 R28/29//95 TEMPO 26020G40KT

TAF TAF EDDN
Valid from the 18 at 12:00 until the 19 at 12:00 UTC


181100Z 1812/1912 23020G40KT 9999 BKN020
TEMPO 1814/1816 27035G50KT SHRA BKN020TCU
BECMG 1816/1818 28020G30KT
BECMG 1819/1821 27012KT
TEMPO 1823/1912 2000 SHSN BKN008TCU
PROB30
TEMPO 1910/1912 1200 TSSN VV004 BKN020CB
BECMG 1910/1912 27015G30KT
No reported NOTAMs for that airfield.
2 SIGMETs reported for the München FIR (EDMM) :
 
Severe turbulence
EDMM SIGMET 6 VALID 181331/181630 EDZM
EDMM MUNCHEN FIR SEV TURB FCST N OF N4800 SFC/FL060 MOV E NC=
Severe turbulence
EDMM SIGMET 5 VALID 181200/181600 EDZM
EDMM MUNCHEN FIR SEV TURB FCST S OF N4800 SFC/FL130 STNR NC=



MET'MAP, your aeronautical weather chart ! - Copyright ORBIFLY December 2007 - Disclaimer

ORBIFLY MET'MAP TEAM :

Programming & Development : Alexandra Zaïnal
Concept & Development : Baudouin d'Aumeries
Co-Development & Prog : Marc-Olivier Méhu
Technical & hardware support : Manuel Goepfert

Contact : metmap@orbifly.com




SOURCES & CREDITS :

   NOAA